Terminal Aerodrome Forecast
Issued by NWS

Home | Current Version | Previous Version | Text Only | Print | Product List | Glossary On
Versions: 1 2 3 4 5 6 7 8 9 10 11 12 13 14 15
000
FTUS46 KPDT 230520
TAFDLS
TAF
KDLS 230520Z 2306/2406 31013G20KT P6SM OVC100
     FM231300 32015G25KT P6SM -SHRA BKN035 OVC050
      TEMPO 2313/2317 OVC030
     FM232000 32020G28KT P6SM OVC050
     FM232200 32022G30KT P6SM OVC100
     FM240400 32015G22KT P6SM BKN100=

USA.gov is the U.S. government's official web portal to all federal, state and local government web resources and services.